createdAt,value
2023-05-22T00:01:06.588Z,15.44
2023-05-22T00:03:33.736Z,15.44
2023-05-22T00:06:00.547Z,15.31
2023-05-22T00:08:29.841Z,15.31
2023-05-22T00:10:56.697Z,15.38
2023-05-22T00:13:23.368Z,15.25
2023-05-22T00:15:50.089Z,15.25
2023-05-22T00:18:16.825Z,15.31
2023-05-22T00:20:46.369Z,15.31
2023-05-22T00:23:15.408Z,15.25
2023-05-22T00:25:42.465Z,15.31
2023-05-22T00:28:09.081Z,15.38
2023-05-22T00:30:36.879Z,15.31
2023-05-22T00:33:03.963Z,15.31
2023-05-22T00:35:30.986Z,15.25
2023-05-22T00:37:57.673Z,15.25
2023-05-22T00:40:24.312Z,15.19
2023-05-22T00:42:50.886Z,15.25
2023-05-22T00:45:17.663Z,15.19
2023-05-22T00:47:44.370Z,15.19
2023-05-22T00:50:11.987Z,15.25
2023-05-22T00:52:42.604Z,15.25
2023-05-22T00:55:10.556Z,15.31
2023-05-22T00:57:38.618Z,15.31
2023-05-22T01:00:06.507Z,15.31
2023-05-22T01:02:34.443Z,15.25
2023-05-22T01:05:04.062Z,15.38
2023-05-22T01:07:30.825Z,15.38
2023-05-22T01:09:57.526Z,15.38
2023-05-22T01:12:38.111Z,15.38
2023-05-22T01:15:32.079Z,15.38
2023-05-22T01:18:12.435Z,15.31
2023-05-22T01:20:43.926Z,15.38
2023-05-22T01:23:29.225Z,15.31
2023-05-22T01:26:23.738Z,15.31
2023-05-22T01:28:56.423Z,15.38
2023-05-22T01:31:27.588Z,15.31
2023-05-22T01:33:57.336Z,15.31
2023-05-22T01:36:28.963Z,15.38
2023-05-22T01:38:56.436Z,15.31
2023-05-22T01:41:23.320Z,15.31
2023-05-22T01:43:49.938Z,15.31
2023-05-22T01:46:16.657Z,15.38
2023-05-22T01:48:43.254Z,15.25
2023-05-22T01:51:44.703Z,15.25
2023-05-22T01:54:20.137Z,15.19
2023-05-22T01:56:55.669Z,15.13
2023-05-22T01:59:34.901Z,15.13
2023-05-22T02:02:06.511Z,14.88
2023-05-22T02:04:39.534Z,15.06
2023-05-22T02:07:07.362Z,15.06
2023-05-22T02:09:35.405Z,15.00
2023-05-22T02:12:03.064Z,14.88
2023-05-22T02:14:30.205Z,14.94
2023-05-22T02:16:58.084Z,14.94
2023-05-22T02:19:24.733Z,15.00
2023-05-22T02:21:51.361Z,15.13
2023-05-22T02:24:17.923Z,14.94
2023-05-22T02:26:44.638Z,14.81
2023-05-22T02:29:12.851Z,14.88
2023-05-22T02:31:39.501Z,14.88
2023-05-22T02:34:06.599Z,14.94
2023-05-22T02:36:33.285Z,14.88
2023-05-22T02:39:00.316Z,14.88
2023-05-22T02:41:26.938Z,14.69
2023-05-22T02:43:53.558Z,14.63
2023-05-22T02:46:20.772Z,14.75
2023-05-22T02:48:47.403Z,14.56
2023-05-22T02:51:13.964Z,14.38
2023-05-22T02:53:41.521Z,14.25
2023-05-22T02:56:08.883Z,14.44
2023-05-22T02:58:35.918Z,14.38
2023-05-22T03:01:03.484Z,14.50
2023-05-22T03:03:31.323Z,14.63
2023-05-22T03:05:58.556Z,14.38
2023-05-22T03:08:28.099Z,14.38
2023-05-22T03:10:56.599Z,14.38
2023-05-22T03:13:23.317Z,14.38
2023-05-22T03:15:49.946Z,14.31
2023-05-22T03:18:16.943Z,14.38
2023-05-22T03:20:43.946Z,14.38
2023-05-22T03:23:13.292Z,14.50
2023-05-22T03:25:39.867Z,14.50
2023-05-22T03:28:06.605Z,14.56
2023-05-22T03:30:33.684Z,14.31
2023-05-22T03:33:00.474Z,14.25
2023-05-22T03:35:27.109Z,14.31
2023-05-22T03:37:53.686Z,14.44
2023-05-22T03:40:20.280Z,14.19
2023-05-22T03:42:46.936Z,14.13
2023-05-22T03:45:13.602Z,14.25
2023-05-22T03:47:40.278Z,14.31
2023-05-22T03:50:07.281Z,14.13
2023-05-22T03:52:33.999Z,13.94
2023-05-22T03:55:00.609Z,14.00
2023-05-22T03:57:27.283Z,14.13
2023-05-22T03:59:53.884Z,14.00
2023-05-22T04:02:21.126Z,14.00
2023-05-22T04:04:47.846Z,14.00
2023-05-22T04:07:14.654Z,13.94
2023-05-22T04:09:41.442Z,13.94
2023-05-22T04:12:08.672Z,13.88
2023-05-22T04:14:35.292Z,14.00
2023-05-22T04:17:01.900Z,14.06
2023-05-22T04:19:30.057Z,14.06
2023-05-22T04:21:58.346Z,14.06
2023-05-22T04:24:25.458Z,14.13
2023-05-22T04:26:52.153Z,14.13
2023-05-22T04:29:21.991Z,14.19
2023-05-22T04:31:48.634Z,14.13
2023-05-22T04:34:16.077Z,14.19
2023-05-22T04:36:45.048Z,14.19
2023-05-22T04:39:13.793Z,14.31
2023-05-22T04:41:40.835Z,14.31
2023-05-22T04:44:07.875Z,14.31
2023-05-22T04:46:35.786Z,14.31
2023-05-22T04:49:03.236Z,14.38
2023-05-22T04:51:31.257Z,14.44
2023-05-22T04:53:58.329Z,14.63
2023-05-22T04:56:35.408Z,14.56
2023-05-22T04:59:05.383Z,14.63
2023-05-22T05:01:33.493Z,14.69
2023-05-22T05:04:00.717Z,14.63
2023-05-22T05:06:27.496Z,14.56
2023-05-22T05:08:54.904Z,14.56
2023-05-22T05:11:21.626Z,14.63
2023-05-22T05:13:48.289Z,14.69
2023-05-22T05:16:14.921Z,14.56
2023-05-22T05:18:41.586Z,14.75
2023-05-22T05:21:08.672Z,14.75
2023-05-22T05:23:35.436Z,14.75
2023-05-22T05:26:02.082Z,14.81
2023-05-22T05:28:28.681Z,14.81
2023-05-22T05:30:55.432Z,14.94
2023-05-22T05:33:22.036Z,14.94
2023-05-22T05:35:50.324Z,14.88
2023-05-22T05:38:17.343Z,14.94
2023-05-22T05:40:45.222Z,15.13
2023-05-22T05:43:14.890Z,15.19
2023-05-22T05:45:42.231Z,15.19
2023-05-22T05:48:09.032Z,15.31
2023-05-22T05:50:35.817Z,15.44
2023-05-22T05:53:02.441Z,15.56
2023-05-22T05:55:29.090Z,15.63
2023-05-22T05:57:55.822Z,15.69
2023-05-22T06:00:22.585Z,15.81
2023-05-22T06:02:50.750Z,15.94
2023-05-22T06:05:19.278Z,15.88
2023-05-22T06:07:46.041Z,16.06
2023-05-22T06:10:13.046Z,16.13
2023-05-22T06:12:39.833Z,16.25
2023-05-22T06:15:13.073Z,16.31
2023-05-22T06:17:39.707Z,16.25
2023-05-22T06:20:07.198Z,16.44
2023-05-22T06:22:33.775Z,16.50
2023-05-22T06:25:00.427Z,16.56
2023-05-22T06:27:29.844Z,16.63
2023-05-22T06:29:56.764Z,16.81
2023-05-22T06:32:23.428Z,16.81
2023-05-22T06:34:50.168Z,16.94
2023-05-22T06:37:16.871Z,17.06
2023-05-22T06:39:43.516Z,17.19
2023-05-22T06:42:10.134Z,17.06
2023-05-22T06:44:36.827Z,17.25
2023-05-22T06:47:03.480Z,17.31
2023-05-22T06:49:30.069Z,17.44
2023-05-22T06:51:57.115Z,17.38
2023-05-22T06:54:23.820Z,17.50
2023-05-22T06:56:50.541Z,17.38
2023-05-22T06:59:17.312Z,17.56
2023-05-22T07:01:44.012Z,17.88
2023-05-22T07:04:13.341Z,17.88
2023-05-22T07:06:41.901Z,17.94
2023-05-22T07:09:09.003Z,18.13
2023-05-22T07:11:35.947Z,18.31
2023-05-22T07:14:02.780Z,18.13
2023-05-22T07:16:31.161Z,18.13
2023-05-22T07:18:57.921Z,18.31
2023-05-22T07:21:24.546Z,18.44
2023-05-22T07:23:52.439Z,18.50
2023-05-22T07:26:19.320Z,18.69
2023-05-22T07:28:45.982Z,18.81
2023-05-22T07:31:12.610Z,18.88
2023-05-22T07:33:39.204Z,19.00
2023-05-22T07:36:06.325Z,19.00
2023-05-22T07:38:33.049Z,19.00
2023-05-22T07:40:59.684Z,19.06
2023-05-22T07:43:26.298Z,19.13
2023-05-22T07:45:54.146Z,19.31
2023-05-22T07:48:20.943Z,19.38
2023-05-22T07:50:47.853Z,19.44
2023-05-22T07:53:14.938Z,19.56
2023-05-22T07:55:42.250Z,19.81
2023-05-22T07:58:10.722Z,19.56
2023-05-22T08:00:37.363Z,19.69
2023-05-22T08:03:04.181Z,19.81
2023-05-22T08:05:31.039Z,19.94
2023-05-22T08:07:57.636Z,20.06
2023-05-22T08:10:24.317Z,19.81
2023-05-22T08:12:50.974Z,20.19
2023-05-22T08:15:17.823Z,20.63
2023-05-22T08:17:44.473Z,20.75
2023-05-22T08:20:11.739Z,20.63
2023-05-22T08:22:41.883Z,20.88
2023-05-22T08:25:09.255Z,20.94
2023-05-22T08:27:36.097Z,21.00
2023-05-22T08:30:04.584Z,21.19
2023-05-22T08:32:31.568Z,21.50
2023-05-22T08:34:59.257Z,21.25
2023-05-22T08:37:26.140Z,21.38
2023-05-22T08:39:52.790Z,21.56
2023-05-22T08:42:19.371Z,21.56
2023-05-22T08:44:47.482Z,21.75
2023-05-22T08:47:15.092Z,21.63
2023-05-22T08:49:42.278Z,21.81
2023-05-22T08:52:22.366Z,21.81
2023-05-22T08:54:55.656Z,21.69
2023-05-22T08:57:23.687Z,21.69
2023-05-22T08:59:50.603Z,21.94
2023-05-22T09:02:17.680Z,22.06
2023-05-22T09:04:44.285Z,22.19
2023-05-22T09:07:10.861Z,22.13
2023-05-22T09:09:38.317Z,22.38
2023-05-22T09:12:09.620Z,22.25
2023-05-22T09:14:40.492Z,22.13
2023-05-22T09:17:09.333Z,22.13
2023-05-22T09:19:36.209Z,22.13
2023-05-22T09:22:06.370Z,22.38
2023-05-22T09:24:40.799Z,22.44
2023-05-22T09:27:07.636Z,22.56
2023-05-22T09:29:55.016Z,22.69
2023-05-22T09:32:21.916Z,22.00
2023-05-22T09:34:49.015Z,22.00
2023-05-22T09:37:16.881Z,22.25
2023-05-22T09:39:45.480Z,22.38
2023-05-22T09:42:15.014Z,22.63
2023-05-22T09:44:44.884Z,22.56
2023-05-22T09:47:12.321Z,22.25
2023-05-22T09:49:43.100Z,22.25
2023-05-22T09:52:12.314Z,22.19
2023-05-22T09:54:50.951Z,22.63
2023-05-22T09:57:20.695Z,22.44
2023-05-22T09:59:54.202Z,22.88
2023-05-22T10:02:25.958Z,22.81
2023-05-22T10:04:53.541Z,23.13
2023-05-22T10:07:25.214Z,23.25
2023-05-22T10:09:59.810Z,22.88
2023-05-22T10:12:28.880Z,22.63
2023-05-22T10:14:55.636Z,23.31
2023-05-22T10:17:24.131Z,23.00
2023-05-22T10:19:53.842Z,22.81
2023-05-22T10:22:22.533Z,22.38
2023-05-22T10:24:50.892Z,22.19
2023-05-22T10:27:17.624Z,22.56
2023-05-22T10:30:01.377Z,23.00
2023-05-22T10:32:39.942Z,23.31
2023-05-22T10:35:06.769Z,22.69
2023-05-22T10:37:57.701Z,23.19
2023-05-22T10:40:29.403Z,23.56
2023-05-22T10:43:01.146Z,23.81
2023-05-22T10:45:29.008Z,23.06
2023-05-22T10:48:12.542Z,23.38
2023-05-22T10:50:40.196Z,23.44
2023-05-22T10:53:22.450Z,23.19
2023-05-22T10:55:52.474Z,23.75
2023-05-22T10:58:27.265Z,23.94
2023-05-22T11:01:12.632Z,23.50
2023-05-22T11:04:01.727Z,23.75
2023-05-22T11:06:40.962Z,23.88
2023-05-22T11:09:32.342Z,23.63
2023-05-22T11:12:19.145Z,24.00
2023-05-22T11:15:13.559Z,24.06
2023-05-22T11:17:41.344Z,24.25
2023-05-22T11:20:18.604Z,24.25
2023-05-22T11:23:00.244Z,24.00
2023-05-22T11:25:28.211Z,24.13
2023-05-22T11:27:55.559Z,24.25
2023-05-22T11:30:26.765Z,24.25
2023-05-22T11:32:53.413Z,23.94
2023-05-22T11:35:24.466Z,24.19
2023-05-22T11:37:53.041Z,24.13
2023-05-22T11:40:21.518Z,23.75
2023-05-22T11:42:48.270Z,24.50
2023-05-22T11:45:15.128Z,24.06
2023-05-22T11:47:42.420Z,24.00
2023-05-22T11:50:11.136Z,24.19
2023-05-22T11:52:39.266Z,24.25
2023-05-22T11:55:06.700Z,24.50
2023-05-22T11:57:34.766Z,24.56
2023-05-22T12:00:02.236Z,24.50
2023-05-22T12:02:28.943Z,24.56
2023-05-22T12:04:56.737Z,24.75
2023-05-22T12:07:24.032Z,24.81
2023-05-22T12:09:50.698Z,24.63
2023-05-22T12:12:17.570Z,24.63
2023-05-22T12:14:45.891Z,24.63
2023-05-22T12:17:13.419Z,24.75
2023-05-22T12:19:44.171Z,24.38
2023-05-22T12:22:11.747Z,24.63
2023-05-22T12:24:42.960Z,24.75
2023-05-22T12:27:10.461Z,24.44
2023-05-22T12:29:39.308Z,24.25
2023-05-22T12:32:09.207Z,24.38
2023-05-22T12:34:42.858Z,24.56
2023-05-22T12:37:25.920Z,24.69
2023-05-22T12:39:57.581Z,24.31
2023-05-22T12:42:25.365Z,24.00
2023-05-22T12:44:56.760Z,23.88
2023-05-22T12:47:24.540Z,23.63
2023-05-22T12:49:51.730Z,23.63
2023-05-22T12:52:18.482Z,23.44
2023-05-22T12:54:45.422Z,23.81
2023-05-22T12:57:12.068Z,23.94
2023-05-22T12:59:38.661Z,23.69
2023-05-22T13:02:05.661Z,23.69
2023-05-22T13:04:32.413Z,24.13
2023-05-22T13:06:59.127Z,24.13
2023-05-22T13:09:26.044Z,23.69
2023-05-22T13:11:52.766Z,23.19
2023-05-22T13:14:19.351Z,22.88
2023-05-22T13:16:45.955Z,22.63
2023-05-22T13:19:12.708Z,22.44
2023-05-22T13:21:39.333Z,22.44
2023-05-22T13:24:06.132Z,22.44
2023-05-22T13:26:32.802Z,22.69
2023-05-22T13:28:59.419Z,22.81
2023-05-22T13:31:26.245Z,22.63
2023-05-22T13:33:52.995Z,22.25
2023-05-22T13:36:19.865Z,22.31
2023-05-22T13:38:46.566Z,22.25
2023-05-22T13:41:15.374Z,22.63
2023-05-22T13:43:42.020Z,22.94
2023-05-22T13:46:08.953Z,22.94
2023-05-22T13:48:35.611Z,22.94
2023-05-22T13:51:02.306Z,22.88
2023-05-22T13:53:28.916Z,23.06
2023-05-22T13:55:55.622Z,22.88
2023-05-22T13:58:22.280Z,23.00
2023-05-22T14:00:48.923Z,23.00
2023-05-22T14:03:17.580Z,23.00
2023-05-22T14:05:45.015Z,22.69
2023-05-22T14:08:11.660Z,22.75
2023-05-22T14:10:38.740Z,22.56
2023-05-22T14:13:05.819Z,22.63
2023-05-22T14:15:32.512Z,22.63
2023-05-22T14:17:59.194Z,22.63
2023-05-22T14:20:25.847Z,22.69
2023-05-22T14:22:57.817Z,22.75
2023-05-22T14:25:27.820Z,22.75
2023-05-22T14:27:54.418Z,22.50
2023-05-22T14:30:21.032Z,22.50
2023-05-22T14:32:48.446Z,22.31
2023-05-22T14:35:16.570Z,22.50
2023-05-22T14:37:44.217Z,22.38
2023-05-22T14:40:10.873Z,22.63
2023-05-22T14:42:37.521Z,22.31
2023-05-22T14:45:04.714Z,22.13
2023-05-22T14:47:31.873Z,22.06
2023-05-22T14:50:06.752Z,22.06
2023-05-22T14:52:44.546Z,21.81
2023-05-22T14:55:11.145Z,22.19
2023-05-22T14:57:37.747Z,22.25
2023-05-22T15:00:06.436Z,22.06
2023-05-22T15:02:33.059Z,22.00
2023-05-22T15:04:59.669Z,21.56
2023-05-22T15:07:39.670Z,21.81
2023-05-22T15:10:12.983Z,21.63
2023-05-22T15:12:39.662Z,21.69
2023-05-22T15:15:06.790Z,21.56
2023-05-22T15:17:33.391Z,21.56
2023-05-22T15:20:00.061Z,21.44
2023-05-22T15:22:26.647Z,21.69
2023-05-22T15:25:05.498Z,21.69
2023-05-22T15:27:34.602Z,21.69
2023-05-22T15:30:02.287Z,21.56
2023-05-22T15:32:30.627Z,21.31
2023-05-22T15:34:57.605Z,21.50
2023-05-22T15:37:24.227Z,21.50
2023-05-22T15:39:50.879Z,21.19
2023-05-22T15:42:18.096Z,21.38
2023-05-22T15:44:44.766Z,21.44
2023-05-22T15:47:11.367Z,21.19
2023-05-22T15:49:37.966Z,21.25
2023-05-22T15:52:04.629Z,21.06
2023-05-22T15:54:31.204Z,21.31
2023-05-22T15:56:57.769Z,21.13
2023-05-22T15:59:24.336Z,21.13
2023-05-22T16:01:51.073Z,21.25
2023-05-22T16:04:17.688Z,21.06
2023-05-22T16:06:44.338Z,21.25
2023-05-22T16:09:11.003Z,21.06
2023-05-22T16:11:37.856Z,21.06
2023-05-22T16:14:04.895Z,21.19
2023-05-22T16:16:31.622Z,21.06
2023-05-22T16:18:58.313Z,21.06
2023-05-22T16:21:24.951Z,21.06
2023-05-22T16:23:51.652Z,21.06
2023-05-22T16:26:18.307Z,20.94
2023-05-22T16:28:44.859Z,20.94
2023-05-22T16:31:12.836Z,20.88
2023-05-22T16:33:39.492Z,20.88
2023-05-22T16:36:06.384Z,20.75
2023-05-22T16:38:32.966Z,20.81
2023-05-22T16:40:59.825Z,20.75
2023-05-22T16:43:26.413Z,20.75
2023-05-22T16:45:52.959Z,20.81
2023-05-22T16:48:19.678Z,20.69
2023-05-22T16:50:46.717Z,20.56
2023-05-22T16:53:13.749Z,20.63
2023-05-22T16:55:40.596Z,20.69
2023-05-22T16:58:09.019Z,20.69
2023-05-22T17:00:36.616Z,20.69
2023-05-22T17:03:03.790Z,20.56
2023-05-22T17:05:30.626Z,20.44
2023-05-22T17:07:57.195Z,20.50
2023-05-22T17:10:23.798Z,20.44
2023-05-22T17:12:51.099Z,20.38
2023-05-22T17:15:17.709Z,20.63
2023-05-22T17:17:44.387Z,20.31
2023-05-22T17:20:11.459Z,20.19
2023-05-22T17:22:38.620Z,20.13
2023-05-22T17:25:06.206Z,20.06
2023-05-22T17:27:35.957Z,20.19
2023-05-22T17:30:04.765Z,20.06
2023-05-22T17:32:31.475Z,20.19
2023-05-22T17:34:58.170Z,19.88
2023-05-22T17:37:24.720Z,19.81
2023-05-22T17:39:51.673Z,19.81
2023-05-22T17:42:18.358Z,19.56
2023-05-22T17:44:45.058Z,19.56
2023-05-22T17:47:13.258Z,19.63
2023-05-22T17:49:39.865Z,19.69
2023-05-22T17:52:08.440Z,19.69
2023-05-22T17:54:35.590Z,19.63
2023-05-22T17:57:06.116Z,19.56
2023-05-22T17:59:32.741Z,19.44
2023-05-22T18:01:59.496Z,19.31
2023-05-22T18:04:26.205Z,19.44
2023-05-22T18:06:52.819Z,19.56
2023-05-22T18:09:19.530Z,19.31
2023-05-22T18:11:46.154Z,19.25
2023-05-22T18:14:12.948Z,19.19
2023-05-22T18:16:39.572Z,19.19
2023-05-22T18:19:06.231Z,19.13
2023-05-22T18:21:32.824Z,19.19
2023-05-22T18:23:59.530Z,19.19
2023-05-22T18:26:26.835Z,19.06
2023-05-22T18:28:53.431Z,19.06
2023-05-22T18:31:20.462Z,19.00
2023-05-22T18:33:47.068Z,18.94
2023-05-22T18:36:13.807Z,18.94
2023-05-22T18:38:40.436Z,18.94
2023-05-22T18:41:07.611Z,18.94
2023-05-22T18:43:34.331Z,18.88
2023-05-22T18:46:01.202Z,18.94
2023-05-22T18:48:28.294Z,18.81
2023-05-22T18:50:57.277Z,18.75
2023-05-22T18:53:25.118Z,18.81
2023-05-22T18:55:52.384Z,18.75
2023-05-22T18:58:19.040Z,18.56
2023-05-22T19:00:45.734Z,18.56
2023-05-22T19:03:12.474Z,18.56
2023-05-22T19:05:39.101Z,18.56
2023-05-22T19:08:06.428Z,18.56
2023-05-22T19:10:33.144Z,18.44
2023-05-22T19:12:59.979Z,18.38
2023-05-22T19:15:26.720Z,18.25
2023-05-22T19:17:53.348Z,18.19
2023-05-22T19:20:19.998Z,18.19
2023-05-22T19:22:46.695Z,18.13
2023-05-22T19:25:13.277Z,18.06
2023-05-22T19:27:39.924Z,18.06
2023-05-22T19:30:07.223Z,18.00
2023-05-22T19:32:33.955Z,17.94
2023-05-22T19:35:00.584Z,17.94
2023-05-22T19:37:27.157Z,17.94
2023-05-22T19:39:54.190Z,17.81
2023-05-22T19:42:20.929Z,17.81
2023-05-22T19:44:47.662Z,17.75
2023-05-22T19:47:14.303Z,17.81
2023-05-22T19:49:40.939Z,17.75
2023-05-22T19:52:07.512Z,17.88
2023-05-22T19:54:35.122Z,17.69
2023-05-22T19:57:02.967Z,17.44
2023-05-22T19:59:29.563Z,17.56
2023-05-22T20:01:56.230Z,17.44
2023-05-22T20:04:23.177Z,17.44
2023-05-22T20:06:50.872Z,17.25
2023-05-22T20:09:17.482Z,17.31
2023-05-22T20:11:44.096Z,17.19
2023-05-22T20:14:12.063Z,17.19
2023-05-22T20:16:38.740Z,17.06
2023-05-22T20:19:05.412Z,17.13
2023-05-22T20:21:32.101Z,17.06
2023-05-22T20:23:59.082Z,17.06
2023-05-22T20:26:26.055Z,17.13
2023-05-22T20:28:52.635Z,17.06
2023-05-22T20:31:19.261Z,17.00
2023-05-22T20:33:46.038Z,17.06
2023-05-22T20:36:14.851Z,17.19
2023-05-22T20:38:42.559Z,17.13
2023-05-22T20:41:09.925Z,17.06
2023-05-22T20:43:36.636Z,17.06
2023-05-22T20:46:03.255Z,17.00
2023-05-22T20:48:29.899Z,16.94
2023-05-22T20:50:56.507Z,16.94
2023-05-22T20:53:24.465Z,16.81
2023-05-22T20:55:53.264Z,16.75
2023-05-22T20:58:19.926Z,16.75
2023-05-22T21:00:49.217Z,16.63
2023-05-22T21:03:16.524Z,16.56
2023-05-22T21:05:43.167Z,16.44
2023-05-22T21:08:09.768Z,16.38
2023-05-22T21:10:36.378Z,16.38
2023-05-22T21:13:02.971Z,16.31
2023-05-22T21:15:29.528Z,16.13
2023-05-22T21:17:56.181Z,16.06
2023-05-22T21:20:22.812Z,16.00
2023-05-22T21:22:49.378Z,15.81
2023-05-22T21:25:16.045Z,15.75
2023-05-22T21:27:42.653Z,15.69
2023-05-22T21:30:12.615Z,15.63
2023-05-22T21:32:39.235Z,15.63
2023-05-22T21:35:06.244Z,15.63
2023-05-22T21:37:32.807Z,15.56
2023-05-22T21:39:59.447Z,15.50
2023-05-22T21:42:26.357Z,15.50
2023-05-22T21:44:52.959Z,15.50
2023-05-22T21:47:19.538Z,15.38
2023-05-22T21:49:46.199Z,15.44
2023-05-22T21:52:12.931Z,15.38
2023-05-22T21:54:39.701Z,15.38
2023-05-22T21:57:06.585Z,15.50
2023-05-22T21:59:33.580Z,15.50
2023-05-22T22:02:00.273Z,15.44
2023-05-22T22:04:26.895Z,15.31
2023-05-22T22:06:53.518Z,15.38
2023-05-22T22:09:20.122Z,15.38
2023-05-22T22:11:48.533Z,15.38
2023-05-22T22:14:15.096Z,15.38
2023-05-22T22:16:44.254Z,15.44
2023-05-22T22:19:11.557Z,15.44
2023-05-22T22:21:38.448Z,15.38
2023-05-22T22:24:05.123Z,15.31
2023-05-22T22:26:32.082Z,15.44
2023-05-22T22:28:58.862Z,15.38
2023-05-22T22:31:26.261Z,15.38
2023-05-22T22:33:52.921Z,15.38
2023-05-22T22:36:19.535Z,15.50
2023-05-22T22:38:46.156Z,15.56
2023-05-22T22:41:12.753Z,15.50
2023-05-22T22:43:39.319Z,15.44
2023-05-22T22:46:06.029Z,15.44
2023-05-22T22:48:33.713Z,15.38
2023-05-22T22:51:00.311Z,15.31
2023-05-22T22:53:26.940Z,15.19
2023-05-22T22:55:56.950Z,15.19
2023-05-22T22:58:23.785Z,15.19
2023-05-22T23:00:50.380Z,15.19
2023-05-22T23:03:16.987Z,15.25
2023-05-22T23:05:43.953Z,15.19
2023-05-22T23:08:11.007Z,15.13
2023-05-22T23:10:37.550Z,15.06
2023-05-22T23:13:04.351Z,15.06
2023-05-22T23:15:30.967Z,15.06
2023-05-22T23:17:57.658Z,15.06
2023-05-22T23:20:24.252Z,15.00
2023-05-22T23:22:51.299Z,15.06
2023-05-22T23:25:17.942Z,15.06
2023-05-22T23:27:44.556Z,14.94
2023-05-22T23:30:11.505Z,14.94
2023-05-22T23:32:38.146Z,15.00
2023-05-22T23:35:05.653Z,15.00
2023-05-22T23:37:32.271Z,14.94
2023-05-22T23:39:58.903Z,14.94
2023-05-22T23:42:25.727Z,14.94
2023-05-22T23:44:52.428Z,14.81
2023-05-22T23:47:19.099Z,14.81
2023-05-22T23:49:45.706Z,14.88
2023-05-22T23:52:13.078Z,14.75
2023-05-22T23:54:39.803Z,14.69
2023-05-22T23:57:06.362Z,14.81
2023-05-22T23:59:32.918Z,14.69
